Time;durP1;ratioP1;P1;durP2;ratioP2;P2;SDS_P1;SDS_P2;PMS_P1;PMS_P2;Temp;Humidity;BMP_temperature;BMP_pressure;BME280_temperature;BME280_humidity;BME280_pressure;Samples;Min_cycle;Max_cycle;Signal;HPM_P1;HPM_P2
2022/01/12 00:01:58;;;;;;;18.48;10.38;;;;;;;2.46;78.65;101822.94;5035364;28;20045;-55
2022/01/12 00:04:27;;;;;;;19.48;11.02;;;;;;;2.43;79.24;101821.00;5017770;28;20083;-55
2022/01/12 00:06:58;;;;;;;17.25;9.88;;;;;;;2.41;78.84;101814.88;5035293;28;20041;-56
2022/01/12 00:09:23;;;;;;;19.65;11.88;;;;;;;2.39;78.67;101823.22;5001568;28;20040;-55
2022/01/12 00:11:49;;;;;;;16.35;10.48;;;;;;;2.36;78.66;101826.44;5017568;28;20038;-55
2022/01/12 00:14:17;;;;;;;16.77;11.77;;;;;;;2.37;78.88;101825.66;5034725;28;20044;-55
2022/01/12 00:16:47;;;;;;;16.65;10.52;;;;;;;2.35;78.48;101821.19;5034641;28;20069;-55
2022/01/12 00:19:13;;;;;;;16.33;9.65;;;;;;;2.35;79.04;101828.84;5000768;28;20582;-55
2022/01/12 00:21:44;;;;;;;21.75;11.30;;;;;;;2.37;78.47;101835.91;5034929;28;20033;-55
2022/01/12 00:24:09;;;;;;;17.33;12.27;;;;;;;2.37;78.87;101835.91;5000060;28;20392;-55
2022/01/12 00:33:08;;;;;;;17.10;10.55;;;;;;;2.37;78.46;101838.47;5034606;28;20409;-56
2022/01/12 00:34:53;;;;;;;15.90;10.02;;;;;;;2.31;78.91;101816.63;5034632;28;20029;-55
2022/01/12 00:37:21;;;;;;;19.17;11.63;;;;;;;2.30;78.42;101822.50;5017199;28;20044;-56
2022/01/12 00:39:50;;;;;;;13.07;10.27;;;;;;;2.30;78.53;101846.41;5034635;28;20035;-55
2022/01/12 00:42:22;;;;;;;14.90;10.80;;;;;;;2.31;78.64;101858.44;5016410;28;20460;-55
2022/01/12 00:44:48;;;;;;;16.23;10.05;;;;;;;2.33;78.84;101849.22;5034585;28;20034;-56
2022/01/12 00:47:18;;;;;;;15.32;9.35;;;;;;;2.35;78.66;101847.69;5016646;28;20044;-56
2022/01/12 00:49:44;;;;;;;17.23;11.32;;;;;;;2.37;79.11;101856.38;5034266;28;20036;-55
2022/01/12 00:52:12;;;;;;;15.07;9.40;;;;;;;2.38;78.58;101858.16;5034194;28;20489;-55
2022/01/12 00:54:38;;;;;;;14.25;9.55;;;;;;;2.39;78.69;101856.47;5016759;28;20044;-55
2022/01/12 00:57:08;;;;;;;13.32;9.45;;;;;;;2.40;79.25;101858.28;5034109;28;20128;-56
2022/01/12 00:59:37;;;;;;;18.27;9.98;;;;;;;2.41;78.85;101857.50;5001283;28;20044;-56
2022/01/12 01:02:08;;;;;;;17.17;9.00;;;;;;;2.40;78.74;101858.28;5034085;28;20049;-56
2022/01/12 01:04:35;;;;;;;14.48;9.60;;;;;;;2.41;78.75;101855.81;5034506;28;20052;-55
2022/01/12 01:07:06;;;;;;;13.52;8.88;;;;;;;2.41;79.04;101858.38;5000091;28;20044;-56
2022/01/12 01:09:34;;;;;;;14.32;9.45;;;;;;;2.39;78.68;101852.28;4999642;28;20029;-55
2022/01/12 01:12:00;;;;;;;13.57;9.88;;;;;;;2.41;78.82;101870.28;5033997;28;20053;-55
2022/01/12 01:14:45;;;;;;;13.50;9.38;;;;;;;2.40;79.04;101866.84;5033676;28;20064;-55
2022/01/12 01:25:32;;;;;;;12.15;9.00;;;;;;;2.40;79.01;101891.53;5034017;28;20077;-55
2022/01/12 01:28:02;;;;;;;14.93;9.00;;;;;;;2.39;78.74;101913.69;5016339;28;20033;-55
2022/01/12 01:30:36;;;;;;;14.88;9.68;;;;;;;2.42;79.10;101900.25;5033465;28;20041;-55
2022/01/12 01:33:05;;;;;;;16.27;9.80;;;;;;;2.42;78.72;101910.47;4999867;28;20040;-54
2022/01/12 01:35:33;;;;;;;15.70;9.27;;;;;;;2.40;79.10;101915.47;5015585;28;20124;-55
2022/01/12 01:38:05;;;;;;;15.90;9.40;;;;;;;2.41;78.66;101912.13;5016518;28;20042;-55
2022/01/12 01:40:35;;;;;;;10.32;8.50;;;;;;;2.41;79.27;101914.69;5000097;28;20088;-55
2022/01/12 01:53:50;;;;;;;11.68;7.63;;;;;;;2.41;78.92;101918.91;5033421;28;20397;-55
2022/01/12 01:56:19;;;;;;;14.57;10.40;;;;;;;2.42;79.21;101930.94;4999266;28;20559;-55
2022/01/12 01:58:48;;;;;;;14.73;9.35;;;;;;;2.41;79.08;101941.97;4999390;28;20033;-55
2022/01/12 02:01:16;;;;;;;16.15;9.60;;;;;;;2.41;79.02;101941.97;4998911;28;20040;-55
2022/01/12 02:03:43;;;;;;;15.10;10.60;;;;;;;2.41;79.13;101937.72;5016125;28;20037;-55
2022/01/12 02:06:11;;;;;;;13.63;9.35;;;;;;;2.40;78.93;101945.28;4999498;28;20045;-55
2022/01/12 02:08:37;;;;;;;12.07;8.50;;;;;;;2.40;79.19;101940.16;4999514;28;20065;-55
2022/01/12 02:11:03;;;;;;;13.20;9.95;;;;;;;2.40;79.04;101932.50;5016040;28;20076;-55
2022/01/12 02:13:29;;;;;;;15.73;8.80;;;;;;;2.40;78.75;101929.94;4999206;28;20042;-55
2022/01/12 02:15:57;;;;;;;15.68;9.50;;;;;;;2.40;78.96;101919.69;4999204;28;20122;-55
2022/01/12 02:40:25;;;;;;;19.40;9.18;;;;;;;2.22;78.42;101885.88;5037117;28;20041;-55
2022/01/12 02:43:12;;;;;;;16.95;9.40;;;;;;;2.20;78.39;101888.28;5018787;28;20038;-55
2022/01/12 02:53:46;;;;;;;11.90;8.02;;;;;;;2.27;78.51;101930.59;5018948;28;20064;-55
2022/01/12 02:56:20;;;;;;;13.48;8.60;;;;;;;2.28;78.94;101919.59;5035982;28;20485;-55
2022/01/12 02:58:47;;;;;;;11.07;8.23;;;;;;;2.29;79.02;101923.94;5036840;28;20047;-55
2022/01/12 03:03:55;;;;;;;16.67;8.98;;;;;;;2.30;78.73;101915.50;5036228;28;20519;-55
2022/01/12 03:06:28;;;;;;;12.15;8.63;;;;;;;2.32;78.69;101910.53;5018711;28;20033;-55
2022/01/12 03:08:55;;;;;;;14.68;7.95;;;;;;;2.31;79.12;101904.50;5002004;28;20044;-55
2022/01/12 03:11:23;;;;;;;13.60;8.38;;;;;;;2.31;78.76;101916.41;5002590;28;20037;-55
2022/01/12 03:13:50;;;;;;;10.82;7.82;;;;;;;2.32;78.92;101905.41;5018243;28;20485;-56
2022/01/12 03:16:17;;;;;;;11.05;8.45;;;;;;;2.32;78.83;101902.84;5002176;28;20120;-55
2022/01/12 03:18:48;;;;;;;16.00;9.05;;;;;;;2.30;78.73;101892.47;5018542;28;20041;-55
2022/01/12 03:21:15;;;;;;;13.85;8.13;;;;;;;2.29;78.64;101895.81;5036116;28;20062;-54
2022/01/12 03:23:41;;;;;;;13.20;8.70;;;;;;;2.29;79.14;101895.81;5002058;28;20562;-55
2022/01/12 03:26:11;;;;;;;11.55;8.18;;;;;;;2.29;78.80;101898.38;5036016;28;20125;-54
2022/01/12 03:28:40;;;;;;;17.65;9.02;;;;;;;2.27;78.80;101900.81;5017890;28;20044;-54
2022/01/12 03:31:18;;;;;;;12.68;8.85;;;;;;;2.28;78.71;101891.47;5035729;28;20069;-55
2022/01/12 03:39:01;;;;;;;12.27;7.13;;;;;;;2.28;78.93;101901.69;5018468;28;20041;-55
2022/01/12 03:41:32;;;;;;;16.98;9.40;;;;;;;2.27;78.69;101905.94;5018264;28;20030;-55
2022/01/12 03:44:00;;;;;;;11.70;8.43;;;;;;;2.28;78.92;101919.59;5017911;28;20560;-55
2022/01/12 03:46:30;;;;;;;10.27;8.10;;;;;;;2.28;78.58;101922.16;5035074;28;20124;-55
2022/01/12 03:48:56;;;;;;;12.32;9.00;;;;;;;2.29;78.82;101929.06;5018226;28;20408;-55
2022/01/12 03:51:25;;;;;;;15.02;9.05;;;;;;;2.29;78.95;101941.88;5017912;28;20038;-55
2022/01/12 03:53:52;;;;;;;11.20;7.97;;;;;;;2.30;78.91;101953.88;5035646;28;20163;-55
2022/01/12 03:56:21;;;;;;;12.23;8.43;;;;;;;2.31;78.65;101970.16;5017536;28;20457;-55
2022/01/12 03:58:51;;;;;;;11.68;7.30;;;;;;;2.31;79.02;101963.34;5035427;28;20040;-55
2022/01/12 04:01:17;;;;;;;12.50;7.85;;;;;;;2.31;78.63;101960.78;5035221;28;20041;-55
2022/01/12 04:03:57;;;;;;;13.20;8.73;;;;;;;2.32;78.96;101962.59;5002041;28;20060;-55
2022/01/12 04:09:11;;;;;;;11.98;9.35;;;;;;;2.31;78.62;101958.25;5017425;28;20041;-54
2022/01/12 04:11:39;;;;;;;12.00;8.27;;;;;;;2.32;78.77;101954.03;5017752;28;20045;-55
2022/01/12 04:14:07;;;;;;;11.85;8.32;;;;;;;2.30;78.65;101956.44;5034850;28;20382;-54
2022/01/12 04:16:37;;;;;;;14.07;8.85;;;;;;;2.31;79.09;101958.25;5001500;28;20048;-54
2022/01/12 04:19:06;;;;;;;11.48;7.53;;;;;;;2.31;78.66;101952.25;5035069;28;20045;-55
2022/01/12 04:21:41;;;;;;;13.30;8.63;;;;;;;2.30;78.81;101948.78;5017960;28;20548;-54
2022/01/12 04:24:10;;;;;;;12.88;9.43;;;;;;;2.31;78.88;101939.44;5000911;28;20045;-55
2022/01/12 04:26:40;;;;;;;11.35;8.13;;;;;;;2.31;78.79;101930.09;5017104;28;20037;-55
2022/01/12 04:29:12;;;;;;;13.77;9.10;;;;;;;2.31;79.02;101929.22;5001265;28;20045;-56
2022/01/12 04:31:40;;;;;;;13.20;8.35;;;;;;;2.31;78.79;101931.78;5035109;28;20034;-55
2022/01/12 04:34:06;;;;;;;10.45;7.82;;;;;;;2.29;78.77;101931.63;5016848;28;20397;-54
2022/01/12 04:36:40;;;;;;;10.77;7.63;;;;;;;2.30;79.00;101929.97;5000442;28;20052;-55
2022/01/12 04:39:08;;;;;;;15.52;9.10;;;;;;;2.30;78.56;101937.66;5017210;28;20132;-54
2022/01/12 04:41:41;;;;;;;11.00;8.25;;;;;;;2.31;78.79;101929.22;5016989;28;20087;-55
2022/01/12 04:44:08;;;;;;;14.02;8.60;;;;;;;2.28;78.50;101930.75;5034600;28;20044;-55
2022/01/12 04:46:49;;;;;;;13.10;8.02;;;;;;;2.28;78.93;101932.41;5034535;28;20041;-55
2022/01/12 04:51:46;;;;;;;14.50;7.88;;;;;;;2.30;78.93;101940.22;5016899;28;20135;-54
2022/01/12 04:54:13;;;;;;;13.27;8.85;;;;;;;2.29;78.70;101944.41;5034142;28;20547;-55
2022/01/12 04:56:38;;;;;;;11.85;8.38;;;;;;;2.27;78.70;101946.88;5034256;28;20029;-54
2022/01/12 04:59:04;;;;;;;13.95;9.13;;;;;;;2.27;78.74;101953.63;5033459;28;20064;-54
2022/01/12 05:01:36;;;;;;;13.23;8.90;;;;;;;2.28;79.03;101950.31;5016664;28;20056;-55
2022/01/12 05:07:11;;;;;;;15.40;7.90;;;;;;;2.28;78.68;101961.47;5033981;28;20069;-55
2022/01/12 05:09:49;;;;;;;12.45;8.88;;;;;;;2.29;78.98;101972.56;5034111;28;20063;-55
2022/01/12 05:15:13;;;;;;;13.85;9.05;;;;;;;2.27;79.31;101957.09;5016521;28;20056;-54
2022/01/12 05:17:44;;;;;;;13.75;9.15;;;;;;;2.25;78.90;101950.97;4999707;28;20048;-54
2022/01/12 05:20:10;;;;;;;11.20;8.77;;;;;;;2.26;78.96;101955.31;5016228;28;20029;-54
2022/01/12 05:22:41;;;;;;;11.30;8.10;;;;;;;2.28;78.65;101955.44;5033871;28;20042;-54
2022/01/12 05:25:13;;;;;;;16.73;8.30;;;;;;;2.27;78.86;101953.63;5033816;28;20075;-55
2022/01/12 05:27:41;;;;;;;12.02;9.15;;;;;;;2.27;79.02;101954.56;5000150;28;20038;-55
2022/01/12 05:30:13;;;;;;;16.13;9.85;;;;;;;2.29;78.63;101952.09;5015772;28;20033;-54
2022/01/12 05:32:45;;;;;;;13.20;8.55;;;;;;;2.28;78.39;101952.88;5016323;28;20045;-54
2022/01/12 05:35:16;;;;;;;13.10;8.25;;;;;;;2.28;78.71;101963.09;5033474;28;20033;-55
2022/01/12 05:37:44;;;;;;;11.25;7.93;;;;;;;2.29;78.88;101962.34;5016191;28;20087;-54
2022/01/12 05:40:14;;;;;;;13.23;8.65;;;;;;;2.31;79.01;101965.03;4999566;28;20037;-55
2022/01/12 05:42:43;;;;;;;15.90;8.48;;;;;;;2.30;78.73;101964.13;5015988;28;20040;-55
2022/01/12 05:45:12;;;;;;;12.75;7.97;;;;;;;2.30;78.94;101973.47;5033731;28;20072;-55
2022/01/12 05:50:09;;;;;;;11.30;7.95;;;;;;;2.31;78.95;101977.84;5016199;28;20148;-55
2022/01/12 05:52:35;;;;;;;17.25;10.65;;;;;;;2.32;79.09;101977.06;5015813;28;20033;-55
2022/01/12 05:55:04;;;;;;;13.73;8.82;;;;;;;2.31;78.53;101967.59;5033367;28;20033;-54
2022/01/12 05:57:33;;;;;;;12.60;8.32;;;;;;;2.31;79.16;101968.47;4999447;28;20046;-55
2022/01/12 06:00:06;;;;;;;11.23;7.75;;;;;;;2.31;79.07;101967.59;5016046;28;20030;-54
2022/01/12 06:02:32;;;;;;;12.50;8.85;;;;;;;2.31;78.60;101965.03;4999250;28;20121;-55
2022/01/12 06:04:58;;;;;;;12.63;7.93;;;;;;;2.31;78.86;101976.16;5033426;28;20042;-55
2022/01/12 06:07:23;;;;;;;13.80;8.43;;;;;;;2.32;78.90;101966.81;5015928;28;20034;-54
2022/01/12 06:09:54;;;;;;;15.27;8.27;;;;;;;2.32;78.70;101956.59;5018216;28;20487;-54
2022/01/12 06:12:25;;;;;;;11.15;9.43;;;;;;;2.32;79.05;101977.06;5037235;28;20033;-55
2022/01/12 06:14:55;;;;;;;12.02;8.23;;;;;;;2.33;78.99;101983.97;5037728;28;20049;-55
2022/01/12 06:17:22;;;;;;;14.25;9.38;;;;;;;2.32;78.76;101987.31;5003177;28;20081;-55
2022/01/12 06:19:48;;;;;;;13.85;8.73;;;;;;;2.31;79.24;101986.38;5019834;28;20049;-55
2022/01/12 06:22:15;;;;;;;15.90;8.65;;;;;;;2.33;78.60;101994.22;5019700;28;20374;-54
2022/01/12 06:24:43;;;;;;;13.98;8.52;;;;;;;2.31;78.53;101991.50;5002954;28;20562;-54
2022/01/12 06:27:13;;;;;;;11.75;8.15;;;;;;;2.32;78.70;101993.28;5037190;28;20069;-54
2022/01/12 06:30:01;;;;;;;12.82;8.63;;;;;;;2.32;78.87;101993.28;5019172;28;20042;-55
2022/01/12 06:32:27;;;;;;;14.48;8.85;;;;;;;2.31;78.92;101978.72;5019591;28;20041;-55
2022/01/12 06:34:53;;;;;;;14.00;9.45;;;;;;;2.30;78.71;101978.59;5019123;28;20037;-55
2022/01/12 06:37:19;;;;;;;12.25;8.70;;;;;;;2.30;78.71;101974.34;5002982;28;20065;-54
2022/01/12 06:39:44;;;;;;;18.17;8.43;;;;;;;2.30;79.58;101973.47;5037256;28;20068;-56
2022/01/12 06:42:10;;;;;;;16.58;9.75;;;;;;;2.31;78.37;101968.47;5018672;28;20029;-55
2022/01/12 06:44:35;;;;;;;13.38;8.93;;;;;;;2.30;78.94;101960.69;5018824;28;20038;-55
2022/01/12 06:47:04;;;;;;;13.80;8.80;;;;;;;2.27;78.94;101958.75;5019226;28;20057;-55
2022/01/12 06:49:33;;;;;;;14.43;8.85;;;;;;;2.29;79.02;101967.44;5002622;28;20029;-55
2022/01/12 06:52:05;;;;;;;12.70;8.15;;;;;;;2.30;78.46;101987.16;5018998;28;20120;-55
2022/01/12 06:54:33;;;;;;;13.77;8.15;;;;;;;2.30;79.03;101994.84;5002406;28;20124;-55
2022/01/12 06:57:04;;;;;;;12.35;9.30;;;;;;;2.31;78.91;101998.31;5002525;28;20037;-55
2022/01/12 06:59:33;;;;;;;12.95;9.15;;;;;;;2.31;79.27;102001.75;5002923;28;20136;-55
2022/01/12 07:02:04;;;;;;;14.90;8.55;;;;;;;2.32;78.51;102006.09;5002021;28;20045;-55
2022/01/12 07:04:30;;;;;;;12.70;8.95;;;;;;;2.32;79.05;102006.09;5002404;28;20542;-55
2022/01/12 07:06:58;;;;;;;14.93;8.55;;;;;;;2.31;78.88;102001.75;5036289;28;20041;-54
2022/01/12 07:09:24;;;;;;;16.77;9.32;;;;;;;2.31;78.69;102013.66;5002106;28;20030;-55
2022/01/12 07:11:50;;;;;;;11.63;9.00;;;;;;;2.32;78.55;102020.56;5036297;28;20042;-55
2022/01/12 07:14:16;;;;;;;19.88;9.93;;;;;;;2.32;78.51;102028.25;5036070;28;20033;-54
2022/01/12 07:16:47;;;;;;;12.57;9.57;;;;;;;2.33;78.95;102036.03;5018622;28;20044;-54
2022/01/12 07:19:12;;;;;;;13.90;9.43;;;;;;;2.33;78.69;102041.16;5002625;28;20120;-55
2022/01/12 07:21:38;;;;;;;12.45;8.93;;;;;;;2.32;78.92;102047.03;5035472;28;20591;-55
2022/01/12 07:24:05;;;;;;;10.48;7.88;;;;;;;2.33;78.73;102053.06;5036024;28;20060;-55
2022/01/12 07:26:30;;;;;;;14.02;9.00;;;;;;;2.33;78.37;102066.75;5035907;28;20095;-55
2022/01/12 07:28:59;;;;;;;11.30;7.78;;;;;;;2.34;78.83;102058.28;5036164;28;20045;-55
2022/01/12 07:31:25;;;;;;;16.08;8.90;;;;;;;2.34;78.81;102060.84;5001836;28;20128;-55
2022/01/12 07:33:56;;;;;;;13.18;8.90;;;;;;;2.34;78.91;102067.63;5036000;28;20053;-55
2022/01/12 07:36:24;;;;;;;15.40;9.00;;;;;;;2.34;78.69;102065.97;5018543;28;20029;-56
2022/01/12 07:38:59;;;;;;;16.42;9.50;;;;;;;2.34;78.69;102076.22;5036317;28;20040;-55
2022/01/12 07:41:25;;;;;;;13.18;9.80;;;;;;;2.34;78.74;102081.34;5036023;28;20116;-55
2022/01/12 07:43:50;;;;;;;16.77;9.20;;;;;;;2.34;78.78;102100.88;5001842;28;20037;-55
2022/01/12 07:46:16;;;;;;;11.95;7.93;;;;;;;2.34;78.77;102095.78;5018015;28;20446;-55
2022/01/12 07:48:41;;;;;;;12.90;8.93;;;;;;;2.34;78.92;102108.56;5035664;28;20057;-55
2022/01/12 07:51:08;;;;;;;14.57;9.13;;;;;;;2.35;78.77;102112.91;5034972;28;20037;-55
2022/01/12 07:53:39;;;;;;;12.75;8.55;;;;;;;2.36;78.59;102117.28;5017606;28;20068;-54
2022/01/12 07:56:06;;;;;;;12.60;8.82;;;;;;;2.35;78.60;102116.41;5017959;28;20044;-55
2022/01/12 07:58:31;;;;;;;14.25;10.25;;;;;;;2.35;78.42;102118.94;5017905;28;20037;-55
2022/01/12 08:00:57;;;;;;;13.45;9.18;;;;;;;2.35;78.76;102118.94;5035754;28;20091;-55
2022/01/12 08:03:23;;;;;;;12.05;9.00;;;;;;;2.35;78.96;102116.41;5035196;28;20045;-55
2022/01/12 08:05:50;;;;;;;15.07;9.95;;;;;;;2.36;78.88;102113.06;5000944;28;20041;-54
2022/01/12 08:08:15;;;;;;;12.57;7.63;;;;;;;2.35;78.62;102121.50;5035273;28;20037;-55
2022/01/12 08:10:41;;;;;;;15.68;9.50;;;;;;;2.36;78.99;102132.63;5034849;28;20041;-55
2022/01/12 08:13:07;;;;;;;11.43;9.18;;;;;;;2.36;78.64;102136.09;5035331;28;20507;-55
2022/01/12 08:15:35;;;;;;;13.80;9.93;;;;;;;2.36;78.70;102130.97;5035088;28;20041;-55
2022/01/12 08:18:00;;;;;;;16.02;9.50;;;;;;;2.36;79.13;102133.53;5017473;28;20040;-55
2022/01/12 08:20:28;;;;;;;16.55;9.60;;;;;;;2.36;78.96;102132.63;5034961;28;20154;-55
2022/01/12 08:22:55;;;;;;;15.52;9.82;;;;;;;2.36;78.95;102127.50;5000869;28;20125;-54
2022/01/12 08:25:21;;;;;;;13.10;9.57;;;;;;;2.36;78.92;102127.50;5000919;28;20045;-54
2022/01/12 08:27:52;;;;;;;14.20;9.48;;;;;;;2.35;78.63;102126.63;5035034;28;20067;-55
2022/01/12 08:30:28;;;;;;;14.15;9.88;;;;;;;2.35;79.10;102129.19;5034717;28;20025;-55
2022/01/12 08:32:54;;;;;;;18.92;10.13;;;;;;;2.34;79.08;102127.41;5017100;28;20421;-54
2022/01/12 08:35:22;;;;;;;16.90;10.25;;;;;;;2.33;78.58;102124.72;5000677;28;20056;-54
2022/01/12 08:37:50;;;;;;;18.58;11.27;;;;;;;2.33;78.66;102128.16;5034928;28;20124;-55
2022/01/12 08:40:17;;;;;;;15.50;10.30;;;;;;;2.34;78.73;102139.28;5034676;28;20041;-54
2022/01/12 08:42:43;;;;;;;15.65;10.77;;;;;;;2.34;79.12;102140.19;5000650;28;20057;-55
2022/01/12 08:45:09;;;;;;;14.95;10.63;;;;;;;2.34;79.08;102144.41;5016943;28;20441;-55
2022/01/12 08:47:35;;;;;;;16.95;11.15;;;;;;;2.34;78.75;102150.44;5034480;28;20128;-55
2022/01/12 08:50:05;;;;;;;17.85;11.20;;;;;;;2.34;78.94;102150.44;5034442;28;20041;-56
2022/01/12 08:52:36;;;;;;;17.88;12.15;;;;;;;2.34;79.26;102149.50;5016573;28;20049;-55
2022/01/12 08:55:03;;;;;;;17.45;11.48;;;;;;;2.35;79.15;102151.31;5000629;28;20030;-55
2022/01/12 08:57:32;;;;;;;17.73;11.35;;;;;;;2.35;78.74;102156.44;5000247;28;20132;-55
2022/01/12 09:00:07;;;;;;;17.88;11.35;;;;;;;2.34;79.29;102155.53;5017067;28;20037;-55
2022/01/12 09:02:32;;;;;;;17.35;11.73;;;;;;;2.35;78.92;102159.00;5016470;28;20056;-55
2022/01/12 09:05:03;;;;;;;18.85;11.38;;;;;;;2.35;79.01;102159.91;5034591;28;20037;-54
2022/01/12 09:07:28;;;;;;;19.58;12.48;;;;;;;2.35;78.82;102174.34;5016523;28;20044;-55
2022/01/12 09:09:58;;;;;;;17.10;11.27;;;;;;;2.35;78.68;102177.81;5034156;28;20110;-55
2022/01/12 09:12:26;;;;;;;18.70;11.13;;;;;;;2.35;78.67;102177.81;5000042;28;20038;-55
2022/01/12 09:14:55;;;;;;;15.90;11.48;;;;;;;2.35;78.51;102176.91;5034081;28;20041;-55
2022/01/12 09:17:23;;;;;;;18.75;12.40;;;;;;;2.35;78.76;102182.94;4999903;28;20041;-54
2022/01/12 09:19:50;;;;;;;15.82;10.75;;;;;;;2.35;78.90;102182.94;4999931;28;20045;-54
2022/01/12 09:22:21;;;;;;;18.33;12.35;;;;;;;2.34;78.83;102181.13;5034030;28;20037;-55
2022/01/12 09:24:47;;;;;;;16.98;11.15;;;;;;;2.35;79.00;102188.06;5000033;28;20125;-55
2022/01/12 09:27:18;;;;;;;19.35;11.82;;;;;;;2.36;78.90;102194.97;5033274;28;20057;-55
2022/01/12 09:29:45;;;;;;;18.52;11.75;;;;;;;2.36;78.92;102194.06;5034102;28;20041;-55
2022/01/12 09:32:13;;;;;;;17.13;12.77;;;;;;;2.35;78.99;102195.72;4999695;28;20056;-54
2022/01/12 09:34:41;;;;;;;19.10;12.07;;;;;;;2.36;78.89;102194.97;5033896;28;20037;-55
2022/01/12 09:37:09;;;;;;;16.98;11.95;;;;;;;2.37;79.07;102203.53;5033488;28;20128;-55
2022/01/12 09:39:37;;;;;;;20.05;13.60;;;;;;;2.37;78.86;102199.31;5015706;28;20041;-55
2022/01/12 09:42:04;;;;;;;19.85;11.20;;;;;;;2.36;78.99;102197.53;5033856;28;20049;-54
2022/01/12 09:44:38;;;;;;;20.20;12.60;;;;;;;2.36;79.17;102201.72;5015514;28;20068;-55
2022/01/12 09:47:05;;;;;;;;;;;;;;;2.35;78.64;102200.84;5016333;28;20030;-55
2022/01/12 09:49:34;;;;;;;18.70;12.80;;;;;;;2.35;79.06;102202.50;5033484;28;19913;-55
2022/01/12 09:52:02;;;;;;;16.33;12.02;;;;;;;2.35;78.50;102205.97;5015593;28;20030;-55
2022/01/12 09:54:29;;;;;;;16.90;11.68;;;;;;;2.35;78.69;102199.94;4999358;28;20055;-55
2022/01/12 09:56:57;;;;;;;18.80;12.23;;;;;;;2.35;79.03;102207.63;4999415;28;20040;-55
2022/01/12 09:59:27;;;;;;;22.60;13.10;;;;;;;2.34;78.82;102193.94;4999454;28;20049;-55
2022/01/12 10:01:54;;;;;;;17.23;12.32;;;;;;;2.36;79.06;102197.53;5015766;28;20451;-54
2022/01/12 10:04:24;;;;;;;22.73;12.93;;;;;;;2.35;78.69;102198.28;4999203;28;20179;-55
2022/01/12 10:07:00;;;;;;;16.50;12.10;;;;;;;2.37;79.05;102206.09;5032971;28;20029;-55
2022/01/12 10:09:34;;;;;;;19.92;12.65;;;;;;;2.37;78.99;102212.13;5033020;28;20504;-55
2022/01/12 10:12:09;;;;;;;;;;;;;;;2.36;79.16;102218.00;4999566;28;20037;-54
2022/01/12 10:14:42;;;;;;;18.63;12.20;;;;;;;2.34;79.01;102216.97;4999514;28;19917;-55
2022/01/12 10:17:12;;;;;;;20.55;12.38;;;;;;;2.35;79.23;102213.66;4999004;28;20034;-55
2022/01/12 10:19:41;;;;;;;20.70;14.43;;;;;;;2.35;78.92;102218.75;4999185;28;20437;-54
2022/01/12 10:22:15;;;;;;;21.70;13.73;;;;;;;2.35;79.29;102234.13;4999078;28;20037;-54
2022/01/12 10:24:45;;;;;;;18.33;12.15;;;;;;;2.36;78.77;102232.44;5033432;28;20056;-54
2022/01/12 10:27:20;;;;;;;17.58;12.00;;;;;;;2.36;78.84;102243.59;5015613;28;20095;-55
2022/01/12 10:29:56;;;;;;;20.88;13.13;;;;;;;2.37;78.78;102242.81;4999210;28;20048;-55
2022/01/12 10:32:22;;;;;;;21.73;13.65;;;;;;;2.37;78.84;102241.91;4999759;28;20124;-54
2022/01/12 10:34:49;;;;;;;21.00;11.70;;;;;;;2.38;78.57;102242.06;5015459;28;20160;-55
2022/01/12 10:37:26;;;;;;;20.38;14.02;;;;;;;2.37;79.11;102245.38;4999373;28;20037;-55
2022/01/12 10:39:54;;;;;;;19.45;13.02;;;;;;;2.38;78.77;102246.28;4999018;28;20025;-54
2022/01/12 10:42:26;;;;;;;23.02;14.00;;;;;;;2.37;79.17;102242.81;5015662;28;20049;-56
2022/01/12 10:44:57;;;;;;;20.25;13.35;;;;;;;2.38;79.00;102243.72;5033545;28;20033;-55
2022/01/12 10:47:29;;;;;;;18.40;11.65;;;;;;;2.39;78.85;102231.06;5033282;28;20045;-55
2022/01/12 10:49:54;;;;;;;26.35;12.95;;;;;;;2.39;79.13;102235.25;5033178;28;20034;-55
2022/01/12 10:52:21;;;;;;;21.55;13.52;;;;;;;2.38;79.24;102218.13;5032723;28;20555;-55
2022/01/12 10:54:55;;;;;;;21.60;12.40;;;;;;;2.39;78.83;102219.91;4998748;28;20033;-55
2022/01/12 10:57:28;;;;;;;18.48;11.32;;;;;;;2.39;79.24;102225.94;5036196;28;20128;-55
2022/01/12 11:00:18;;;;;;;17.77;11.70;;;;;;;2.40;79.25;102237.06;5037271;28;20088;-56
2022/01/12 11:02:46;;;;;;;19.35;12.70;;;;;;;2.39;79.43;102225.94;5036281;28;20563;-55
2022/01/12 11:05:11;;;;;;;21.50;14.02;;;;;;;2.40;79.37;102222.63;5036492;28;20045;-56
2022/01/12 11:07:39;;;;;;;20.08;13.50;;;;;;;2.38;78.92;102231.81;5036346;28;20033;-55
2022/01/12 11:10:08;;;;;;;19.52;12.35;;;;;;;2.40;79.38;102227.75;5036587;28;20037;-55
2022/01/12 11:12:35;;;;;;;26.38;14.20;;;;;;;2.40;78.88;102219.16;5002555;28;20040;-55
2022/01/12 11:15:06;;;;;;;19.45;13.35;;;;;;;2.38;79.04;102213.00;5002249;28;20148;-55
2022/01/12 11:17:32;;;;;;;20.98;13.63;;;;;;;2.39;79.41;102210.59;5002245;28;20037;-54
2022/01/12 11:20:15;;;;;;;26.42;14.00;;;;;;;2.38;79.05;102211.34;5036146;28;20393;-55
2022/01/12 11:22:43;;;;;;;26.42;15.27;;;;;;;2.40;79.41;102211.47;5002473;28;20045;-55
2022/01/12 11:25:21;;;;;;;24.15;14.35;;;;;;;2.39;79.02;102213.16;5002501;28;20072;-56
2022/01/12 11:27:51;;;;;;;26.35;14.10;;;;;;;2.41;78.91;102210.69;5001798;28;20040;-55
2022/01/12 11:30:23;;;;;;;24.80;14.88;;;;;;;2.40;79.48;102212.38;5018334;28;20041;-55
2022/01/12 11:32:57;;;;;;;26.98;14.93;;;;;;;2.40;79.30;102214.94;5035681;28;20057;-55
2022/01/12 11:35:32;;;;;;;;;;;;;;;2.39;78.74;102215.72;5002302;28;20116;-55
2022/01/12 11:38:03;;;;;;;26.83;14.80;;;;;;;2.38;79.18;102219.03;5001623;28;20323;-54
2022/01/12 11:40:36;;;;;;;32.97;15.65;;;;;;;2.40;78.91;102214.03;5018186;28;20116;-55
2022/01/12 11:43:16;;;;;;;32.63;15.25;;;;;;;2.39;79.26;102214.78;5035831;28;20045;-55
2022/01/12 11:45:42;;;;;;;29.23;15.55;;;;;;;2.39;78.89;102219.91;5002298;28;20054;-55
2022/01/12 11:48:12;;;;;;;35.78;16.67;;;;;;;2.39;79.32;102220.81;5035698;28;20427;-55
2022/01/12 11:50:38;;;;;;;42.70;17.52;;;;;;;2.41;79.21;102228.63;5035445;28;20040;-55
2022/01/12 11:53:20;;;;;;;31.67;16.05;;;;;;;2.40;78.96;102225.19;5035648;28;20034;-55
2022/01/12 11:55:46;;;;;;;29.92;15.57;;;;;;;2.40;79.08;102235.41;5035531;28;20488;-55
2022/01/12 11:58:23;;;;;;;35.33;17.73;;;;;;;2.41;79.12;102228.63;5017516;28;20060;-55
2022/01/12 12:00:49;;;;;;;32.80;16.45;;;;;;;2.41;79.17;102229.50;5035268;28;20037;-54
2022/01/12 12:03:20;;;;;;;30.23;17.20;;;;;;;2.42;79.04;102240.66;5034902;28;20140;-55
2022/01/12 12:05:54;;;;;;;37.13;18.75;;;;;;;2.40;79.26;102235.41;5017498;28;20042;-55
2022/01/12 12:08:25;;;;;;;33.85;17.48;;;;;;;2.41;78.93;102239.75;5034365;28;20400;-55
2022/01/12 12:10:53;;;;;;;30.35;16.48;;;;;;;2.39;79.12;102225.94;5001122;28;20404;-55
2022/01/12 12:13:21;;;;;;;34.70;17.48;;;;;;;2.42;79.45;102228.72;5035137;28;20048;-55
2022/01/12 12:15:51;;;;;;;44.88;18.10;;;;;;;2.42;79.00;102225.28;5001351;28;20087;-55
2022/01/12 12:18:19;;;;;;;36.42;17.80;;;;;;;2.42;79.51;102245.78;5017301;28;20044;-55
2022/01/12 12:20:45;;;;;;;34.28;17.20;;;;;;;2.42;79.26;102246.66;5017008;28;20163;-55
2022/01/12 12:23:10;;;;;;;40.45;19.85;;;;;;;2.44;79.55;102246.81;5035327;28;20116;-55
2022/01/12 12:25:39;;;;;;;41.40;18.00;;;;;;;2.43;79.00;102238.22;5017146;28;20033;-54
2022/01/12 12:28:08;;;;;;;43.92;19.42;;;;;;;2.42;79.39;102231.28;5017180;28;20061;-54
2022/01/12 12:30:38;;;;;;;33.08;18.08;;;;;;;2.43;79.85;102232.22;5017099;28;20073;-54
2022/01/12 12:33:07;;;;;;;36.67;19.30;;;;;;;2.44;79.32;102234.00;5034855;28;20038;-54
2022/01/12 12:35:36;;;;;;;40.13;19.70;;;;;;;2.44;79.28;102218.66;5000632;28;20037;-55
2022/01/12 12:38:12;;;;;;;43.72;18.83;;;;;;;2.43;79.52;102217.72;5016926;28;20493;-56
2022/01/12 12:40:43;;;;;;;37.63;19.33;;;;;;;2.43;79.72;102215.16;5017069;28;20037;-55
2022/01/12 12:43:23;;;;;;;43.53;20.05;;;;;;;2.44;79.34;102209.28;5016675;28;20083;-55
2022/01/12 12:46:01;;;;;;;36.60;20.02;;;;;;;2.44;79.52;102216.97;5016952;28;20034;-55
2022/01/12 12:48:34;;;;;;;38.00;19.63;;;;;;;2.43;79.25;102215.16;5017168;28;20052;-56